sensor_id;sensor_type;location;lat;lon;timestamp;P1;durP1;ratioP1;P2;durP2;ratioP2
10469;SDS011;5282;47.052;15.458;2023-04-03T00:01:20;1.40;;;1.40;;
10469;SDS011;5282;47.052;15.458;2023-04-03T00:03:47;1.50;;;1.50;;
10469;SDS011;5282;47.052;15.458;2023-04-03T00:06:15;1.57;;;1.57;;
10469;SDS011;5282;47.052;15.458;2023-04-03T00:08:42;1.30;;;1.30;;
10469;SDS011;5282;47.052;15.458;2023-04-03T00:11:09;1.33;;;1.33;;
10469;SDS011;5282;47.052;15.458;2023-04-03T00:13:37;1.40;;;1.40;;
10469;SDS011;5282;47.052;15.458;2023-04-03T00:16:05;1.50;;;1.50;;
10469;SDS011;5282;47.052;15.458;2023-04-03T00:18:33;1.73;;;1.63;;
10469;SDS011;5282;47.052;15.458;2023-04-03T00:21:00;1.47;;;1.47;;
10469;SDS011;5282;47.052;15.458;2023-04-03T00:23:28;1.53;;;1.53;;
10469;SDS011;5282;47.052;15.458;2023-04-03T00:25:55;1.70;;;1.60;;
10469;SDS011;5282;47.052;15.458;2023-04-03T00:28:22;1.93;;;1.90;;
10469;SDS011;5282;47.052;15.458;2023-04-03T00:30:49;1.90;;;1.90;;
10469;SDS011;5282;47.052;15.458;2023-04-03T00:33:17;2.00;;;2.00;;
10469;SDS011;5282;47.052;15.458;2023-04-03T00:35:46;2.00;;;2.00;;
10469;SDS011;5282;47.052;15.458;2023-04-03T00:38:13;1.97;;;1.87;;
10469;SDS011;5282;47.052;15.458;2023-04-03T00:40:43;2.17;;;2.10;;
10469;SDS011;5282;47.052;15.458;2023-04-03T00:43:13;2.43;;;2.33;;
10469;SDS011;5282;47.052;15.458;2023-04-03T00:45:42;2.20;;;2.10;;
10469;SDS011;5282;47.052;15.458;2023-04-03T00:48:11;1.70;;;1.70;;
10469;SDS011;5282;47.052;15.458;2023-04-03T00:50:42;1.63;;;1.63;;
10469;SDS011;5282;47.052;15.458;2023-04-03T00:53:11;1.50;;;1.50;;
10469;SDS011;5282;47.052;15.458;2023-04-03T00:55:44;1.80;;;1.80;;
10469;SDS011;5282;47.052;15.458;2023-04-03T00:58:13;1.50;;;1.50;;
10469;SDS011;5282;47.052;15.458;2023-04-03T01:00:43;1.77;;;1.77;;
10469;SDS011;5282;47.052;15.458;2023-04-03T01:03:14;1.70;;;1.60;;
10469;SDS011;5282;47.052;15.458;2023-04-03T01:05:41;1.80;;;1.80;;
10469;SDS011;5282;47.052;15.458;2023-04-03T01:08:07;1.90;;;1.90;;
10469;SDS011;5282;47.052;15.458;2023-04-03T01:10:35;1.70;;;1.70;;
10469;SDS011;5282;47.052;15.458;2023-04-03T01:13:08;1.70;;;1.70;;
10469;SDS011;5282;47.052;15.458;2023-04-03T01:15:47;1.40;;;1.40;;
10469;SDS011;5282;47.052;15.458;2023-04-03T01:18:15;1.60;;;1.60;;
10469;SDS011;5282;47.052;15.458;2023-04-03T01:23:45;1.37;;;1.37;;
10469;SDS011;5282;47.052;15.458;2023-04-03T01:26:24;1.53;;;1.53;;
10469;SDS011;5282;47.052;15.458;2023-04-03T01:28:54;1.70;;;1.70;;
10469;SDS011;5282;47.052;15.458;2023-04-03T01:31:22;1.73;;;1.73;;
10469;SDS011;5282;47.052;15.458;2023-04-03T01:33:54;1.50;;;1.50;;
10469;SDS011;5282;47.052;15.458;2023-04-03T01:36:22;1.80;;;1.80;;
10469;SDS011;5282;47.052;15.458;2023-04-03T01:38:51;1.70;;;1.70;;
10469;SDS011;5282;47.052;15.458;2023-04-03T01:41:19;1.90;;;1.90;;
10469;SDS011;5282;47.052;15.458;2023-04-03T01:43:47;1.50;;;1.50;;
10469;SDS011;5282;47.052;15.458;2023-04-03T01:46:15;1.60;;;1.60;;
10469;SDS011;5282;47.052;15.458;2023-04-03T01:48:42;1.80;;;1.70;;
10469;SDS011;5282;47.052;15.458;2023-04-03T01:51:11;1.50;;;1.50;;
10469;SDS011;5282;47.052;15.458;2023-04-03T01:53:38;1.50;;;1.50;;
10469;SDS011;5282;47.052;15.458;2023-04-03T01:56:05;1.70;;;1.70;;
10469;SDS011;5282;47.052;15.458;2023-04-03T01:58:33;1.80;;;1.80;;
10469;SDS011;5282;47.052;15.458;2023-04-03T02:01:02;1.50;;;1.50;;
10469;SDS011;5282;47.052;15.458;2023-04-03T02:03:30;1.70;;;1.70;;
10469;SDS011;5282;47.052;15.458;2023-04-03T02:05:57;1.80;;;1.80;;
10469;SDS011;5282;47.052;15.458;2023-04-03T02:08:26;1.50;;;1.50;;
10469;SDS011;5282;47.052;15.458;2023-04-03T02:10:53;1.60;;;1.60;;
10469;SDS011;5282;47.052;15.458;2023-04-03T02:13:20;2.07;;;1.87;;
10469;SDS011;5282;47.052;15.458;2023-04-03T02:15:49;1.63;;;1.63;;
10469;SDS011;5282;47.052;15.458;2023-04-03T02:18:16;1.70;;;1.70;;
10469;SDS011;5282;47.052;15.458;2023-04-03T02:20:44;1.87;;;1.77;;
10469;SDS011;5282;47.052;15.458;2023-04-03T02:23:12;1.73;;;1.73;;
10469;SDS011;5282;47.052;15.458;2023-04-03T02:25:41;1.80;;;1.70;;
10469;SDS011;5282;47.052;15.458;2023-04-03T02:28:09;1.70;;;1.70;;
10469;SDS011;5282;47.052;15.458;2023-04-03T02:30:36;1.90;;;1.80;;
10469;SDS011;5282;47.052;15.458;2023-04-03T02:33:03;1.60;;;1.60;;
10469;SDS011;5282;47.052;15.458;2023-04-03T02:35:30;1.60;;;1.60;;
10469;SDS011;5282;47.052;15.458;2023-04-03T02:37:57;1.90;;;1.80;;
10469;SDS011;5282;47.052;15.458;2023-04-03T02:40:24;1.73;;;1.73;;
10469;SDS011;5282;47.052;15.458;2023-04-03T02:42:52;1.60;;;1.60;;
10469;SDS011;5282;47.052;15.458;2023-04-03T02:45:19;1.50;;;1.50;;
10469;SDS011;5282;47.052;15.458;2023-04-03T02:47:46;1.47;;;1.47;;
10469;SDS011;5282;47.052;15.458;2023-04-03T02:50:13;1.50;;;1.50;;
10469;SDS011;5282;47.052;15.458;2023-04-03T02:52:40;1.63;;;1.53;;
10469;SDS011;5282;47.052;15.458;2023-04-03T02:55:07;1.77;;;1.77;;
10469;SDS011;5282;47.052;15.458;2023-04-03T02:57:34;2.20;;;2.10;;
10469;SDS011;5282;47.052;15.458;2023-04-03T03:00:02;2.73;;;2.13;;
10469;SDS011;5282;47.052;15.458;2023-04-03T03:02:31;2.20;;;2.10;;
10469;SDS011;5282;47.052;15.458;2023-04-03T03:04:58;2.27;;;2.17;;
10469;SDS011;5282;47.052;15.458;2023-04-03T03:07:25;2.20;;;2.10;;
10469;SDS011;5282;47.052;15.458;2023-04-03T03:09:51;2.10;;;2.00;;
10469;SDS011;5282;47.052;15.458;2023-04-03T03:12:18;1.93;;;1.83;;
10469;SDS011;5282;47.052;15.458;2023-04-03T03:14:47;1.77;;;1.70;;
10469;SDS011;5282;47.052;15.458;2023-04-03T03:17:16;2.10;;;2.00;;
10469;SDS011;5282;47.052;15.458;2023-04-03T03:19:45;1.80;;;1.70;;
10469;SDS011;5282;47.052;15.458;2023-04-03T03:22:12;1.70;;;1.60;;
10469;SDS011;5282;47.052;15.458;2023-04-03T03:24:39;1.53;;;1.53;;
10469;SDS011;5282;47.052;15.458;2023-04-03T03:27:08;1.30;;;1.30;;
10469;SDS011;5282;47.052;15.458;2023-04-03T03:29:35;1.57;;;1.37;;
10469;SDS011;5282;47.052;15.458;2023-04-03T03:32:02;1.30;;;1.30;;
10469;SDS011;5282;47.052;15.458;2023-04-03T03:34:31;1.20;;;1.20;;
10469;SDS011;5282;47.052;15.458;2023-04-03T03:36:58;1.50;;;1.50;;
10469;SDS011;5282;47.052;15.458;2023-04-03T03:39:25;1.30;;;1.30;;
10469;SDS011;5282;47.052;15.458;2023-04-03T03:41:52;2.37;;;1.70;;
10469;SDS011;5282;47.052;15.458;2023-04-03T03:44:19;1.40;;;1.40;;
10469;SDS011;5282;47.052;15.458;2023-04-03T03:46:49;1.40;;;1.40;;
10469;SDS011;5282;47.052;15.458;2023-04-03T03:49:15;1.50;;;1.50;;
10469;SDS011;5282;47.052;15.458;2023-04-03T03:51:44;1.40;;;1.30;;
10469;SDS011;5282;47.052;15.458;2023-04-03T03:54:11;1.40;;;1.40;;
10469;SDS011;5282;47.052;15.458;2023-04-03T03:56:38;1.20;;;1.20;;
10469;SDS011;5282;47.052;15.458;2023-04-03T03:59:05;1.40;;;1.30;;
10469;SDS011;5282;47.052;15.458;2023-04-03T04:01:32;1.33;;;1.33;;
10469;SDS011;5282;47.052;15.458;2023-04-03T04:03:59;1.33;;;1.33;;
10469;SDS011;5282;47.052;15.458;2023-04-03T04:06:26;1.23;;;1.23;;
10469;SDS011;5282;47.052;15.458;2023-04-03T04:08:55;1.47;;;1.47;;
10469;SDS011;5282;47.052;15.458;2023-04-03T04:11:24;1.37;;;1.37;;
10469;SDS011;5282;47.052;15.458;2023-04-03T04:13:53;1.80;;;1.70;;
10469;SDS011;5282;47.052;15.458;2023-04-03T04:16:20;1.40;;;1.37;;
10469;SDS011;5282;47.052;15.458;2023-04-03T04:18:46;1.63;;;1.50;;
10469;SDS011;5282;47.052;15.458;2023-04-03T04:21:13;1.50;;;1.50;;
10469;SDS011;5282;47.052;15.458;2023-04-03T04:23:41;1.40;;;1.40;;
10469;SDS011;5282;47.052;15.458;2023-04-03T04:26:09;1.40;;;1.40;;
10469;SDS011;5282;47.052;15.458;2023-04-03T04:28:36;1.60;;;1.60;;
10469;SDS011;5282;47.052;15.458;2023-04-03T04:31:03;1.50;;;1.50;;
10469;SDS011;5282;47.052;15.458;2023-04-03T04:33:29;2.57;;;2.20;;
10469;SDS011;5282;47.052;15.458;2023-04-03T04:35:57;1.70;;;1.70;;
10469;SDS011;5282;47.052;15.458;2023-04-03T04:38:23;1.60;;;1.60;;
10469;SDS011;5282;47.052;15.458;2023-04-03T04:40:50;1.80;;;1.70;;
10469;SDS011;5282;47.052;15.458;2023-04-03T04:43:19;1.50;;;1.50;;
10469;SDS011;5282;47.052;15.458;2023-04-03T04:45:45;1.60;;;1.50;;
10469;SDS011;5282;47.052;15.458;2023-04-03T04:48:13;4.10;;;1.67;;
10469;SDS011;5282;47.052;15.458;2023-04-03T04:50:40;1.90;;;1.30;;
10469;SDS011;5282;47.052;15.458;2023-04-03T04:53:06;1.47;;;1.37;;
10469;SDS011;5282;47.052;15.458;2023-04-03T04:55:33;1.50;;;1.40;;
10469;SDS011;5282;47.052;15.458;2023-04-03T04:58:00;1.30;;;1.13;;
10469;SDS011;5282;47.052;15.458;2023-04-03T05:00:31;1.30;;;1.20;;
10469;SDS011;5282;47.052;15.458;2023-04-03T05:02:58;1.10;;;1.10;;
10469;SDS011;5282;47.052;15.458;2023-04-03T05:05:25;1.30;;;1.30;;
10469;SDS011;5282;47.052;15.458;2023-04-03T05:07:52;1.40;;;1.40;;
10469;SDS011;5282;47.052;15.458;2023-04-03T05:10:19;1.30;;;1.30;;
10469;SDS011;5282;47.052;15.458;2023-04-03T05:12:47;1.30;;;1.30;;
10469;SDS011;5282;47.052;15.458;2023-04-03T05:15:14;1.30;;;1.23;;
10469;SDS011;5282;47.052;15.458;2023-04-03T05:17:42;1.10;;;1.10;;
10469;SDS011;5282;47.052;15.458;2023-04-03T05:20:11;1.23;;;1.23;;
10469;SDS011;5282;47.052;15.458;2023-04-03T05:22:38;1.10;;;1.10;;
10469;SDS011;5282;47.052;15.458;2023-04-03T05:25:06;0.90;;;0.90;;
10469;SDS011;5282;47.052;15.458;2023-04-03T05:27:33;1.17;;;1.17;;
10469;SDS011;5282;47.052;15.458;2023-04-03T05:30:00;1.63;;;1.20;;
10469;SDS011;5282;47.052;15.458;2023-04-03T05:32:28;1.60;;;1.50;;
10469;SDS011;5282;47.052;15.458;2023-04-03T05:34:56;1.33;;;1.23;;
10469;SDS011;5282;47.052;15.458;2023-04-03T05:37:23;1.40;;;1.30;;
10469;SDS011;5282;47.052;15.458;2023-04-03T05:39:52;1.70;;;1.37;;
10469;SDS011;5282;47.052;15.458;2023-04-03T05:42:19;2.43;;;1.10;;
10469;SDS011;5282;47.052;15.458;2023-04-03T05:44:46;1.13;;;1.13;;
10469;SDS011;5282;47.052;15.458;2023-04-03T05:47:15;2.23;;;1.23;;
10469;SDS011;5282;47.052;15.458;2023-04-03T05:49:42;0.93;;;0.93;;
10469;SDS011;5282;47.052;15.458;2023-04-03T05:52:13;1.57;;;1.30;;
10469;SDS011;5282;47.052;15.458;2023-04-03T05:54:47;2.10;;;1.20;;
10469;SDS011;5282;47.052;15.458;2023-04-03T05:57:14;1.20;;;1.20;;
10469;SDS011;5282;47.052;15.458;2023-04-03T05:59:43;1.10;;;1.10;;
10469;SDS011;5282;47.052;15.458;2023-04-03T06:02:12;2.53;;;1.13;;
10469;SDS011;5282;47.052;15.458;2023-04-03T06:04:40;1.00;;;1.00;;
10469;SDS011;5282;47.052;15.458;2023-04-03T06:07:09;1.10;;;1.10;;
10469;SDS011;5282;47.052;15.458;2023-04-03T06:09:39;1.13;;;1.13;;
10469;SDS011;5282;47.052;15.458;2023-04-03T06:12:06;1.10;;;1.10;;
10469;SDS011;5282;47.052;15.458;2023-04-03T06:14:33;1.20;;;1.20;;
10469;SDS011;5282;47.052;15.458;2023-04-03T06:17:00;3.17;;;1.00;;
10469;SDS011;5282;47.052;15.458;2023-04-03T06:19:27;1.13;;;1.00;;
10469;SDS011;5282;47.052;15.458;2023-04-03T06:21:54;1.77;;;1.10;;
10469;SDS011;5282;47.052;15.458;2023-04-03T06:24:21;1.20;;;1.10;;
10469;SDS011;5282;47.052;15.458;2023-04-03T06:26:51;1.00;;;1.00;;
10469;SDS011;5282;47.052;15.458;2023-04-03T06:29:19;1.13;;;1.13;;
10469;SDS011;5282;47.052;15.458;2023-04-03T06:31:46;0.90;;;0.90;;
10469;SDS011;5282;47.052;15.458;2023-04-03T06:34:14;0.90;;;0.90;;
10469;SDS011;5282;47.052;15.458;2023-04-03T06:36:42;2.80;;;1.30;;
10469;SDS011;5282;47.052;15.458;2023-04-03T06:39:11;1.53;;;1.10;;
10469;SDS011;5282;47.052;15.458;2023-04-03T06:41:41;2.17;;;1.30;;
10469;SDS011;5282;47.052;15.458;2023-04-03T06:44:09;1.30;;;1.30;;
10469;SDS011;5282;47.052;15.458;2023-04-03T06:46:37;1.83;;;1.33;;
10469;SDS011;5282;47.052;15.458;2023-04-03T06:49:04;1.20;;;1.20;;
10469;SDS011;5282;47.052;15.458;2023-04-03T06:51:33;0.97;;;0.97;;
10469;SDS011;5282;47.052;15.458;2023-04-03T06:54:00;1.27;;;1.17;;
10469;SDS011;5282;47.052;15.458;2023-04-03T06:56:28;2.07;;;1.30;;
10469;SDS011;5282;47.052;15.458;2023-04-03T06:58:55;1.20;;;1.17;;
10469;SDS011;5282;47.052;15.458;2023-04-03T07:01:27;0.90;;;0.90;;
10469;SDS011;5282;47.052;15.458;2023-04-03T07:03:55;1.47;;;1.07;;
10469;SDS011;5282;47.052;15.458;2023-04-03T07:06:22;0.93;;;0.93;;
10469;SDS011;5282;47.052;15.458;2023-04-03T07:08:52;1.40;;;1.40;;
10469;SDS011;5282;47.052;15.458;2023-04-03T07:11:19;1.10;;;1.10;;
10469;SDS011;5282;47.052;15.458;2023-04-03T07:13:46;1.00;;;1.00;;
10469;SDS011;5282;47.052;15.458;2023-04-03T07:16:13;0.93;;;0.93;;
10469;SDS011;5282;47.052;15.458;2023-04-03T07:18:42;0.97;;;0.97;;
10469;SDS011;5282;47.052;15.458;2023-04-03T07:21:09;1.20;;;1.20;;
10469;SDS011;5282;47.052;15.458;2023-04-03T07:23:36;1.07;;;1.07;;
10469;SDS011;5282;47.052;15.458;2023-04-03T07:26:03;1.30;;;1.30;;
10469;SDS011;5282;47.052;15.458;2023-04-03T07:28:30;1.87;;;1.10;;
10469;SDS011;5282;47.052;15.458;2023-04-03T07:31:00;1.17;;;1.03;;
10469;SDS011;5282;47.052;15.458;2023-04-03T07:33:28;1.00;;;1.00;;
10469;SDS011;5282;47.052;15.458;2023-04-03T07:35:56;1.20;;;1.20;;
10469;SDS011;5282;47.052;15.458;2023-04-03T07:38:23;1.17;;;1.17;;
10469;SDS011;5282;47.052;15.458;2023-04-03T07:40:50;1.30;;;1.30;;
10469;SDS011;5282;47.052;15.458;2023-04-03T07:43:19;2.37;;;1.10;;
10469;SDS011;5282;47.052;15.458;2023-04-03T07:45:47;1.27;;;1.17;;
10469;SDS011;5282;47.052;15.458;2023-04-03T07:48:16;1.13;;;1.13;;
10469;SDS011;5282;47.052;15.458;2023-04-03T07:50:44;1.20;;;1.20;;
10469;SDS011;5282;47.052;15.458;2023-04-03T07:53:12;1.30;;;1.20;;
10469;SDS011;5282;47.052;15.458;2023-04-03T07:55:39;2.13;;;1.20;;
10469;SDS011;5282;47.052;15.458;2023-04-03T07:58:09;1.30;;;1.30;;
10469;SDS011;5282;47.052;15.458;2023-04-03T08:00:37;1.33;;;1.10;;
10469;SDS011;5282;47.052;15.458;2023-04-03T08:03:04;0.97;;;0.97;;
10469;SDS011;5282;47.052;15.458;2023-04-03T08:05:34;1.70;;;1.10;;
10469;SDS011;5282;47.052;15.458;2023-04-03T08:08:03;0.80;;;0.80;;
10469;SDS011;5282;47.052;15.458;2023-04-03T08:10:32;1.03;;;1.03;;
10469;SDS011;5282;47.052;15.458;2023-04-03T08:13:00;1.07;;;1.07;;
10469;SDS011;5282;47.052;15.458;2023-04-03T08:15:27;0.90;;;0.90;;
10469;SDS011;5282;47.052;15.458;2023-04-03T08:17:56;1.23;;;0.87;;
10469;SDS011;5282;47.052;15.458;2023-04-03T08:20:23;1.23;;;1.00;;
10469;SDS011;5282;47.052;15.458;2023-04-03T08:22:51;0.87;;;0.87;;
10469;SDS011;5282;47.052;15.458;2023-04-03T08:25:17;1.67;;;1.20;;
10469;SDS011;5282;47.052;15.458;2023-04-03T08:27:46;1.00;;;1.00;;
10469;SDS011;5282;47.052;15.458;2023-04-03T08:30:13;1.20;;;1.20;;
10469;SDS011;5282;47.052;15.458;2023-04-03T08:32:40;0.90;;;0.90;;
10469;SDS011;5282;47.052;15.458;2023-04-03T08:35:08;1.17;;;1.10;;
10469;SDS011;5282;47.052;15.458;2023-04-03T08:37:36;0.93;;;0.93;;
10469;SDS011;5282;47.052;15.458;2023-04-03T08:40:04;0.83;;;0.83;;
10469;SDS011;5282;47.052;15.458;2023-04-03T08:42:37;1.80;;;1.20;;
10469;SDS011;5282;47.052;15.458;2023-04-03T08:45:14;0.90;;;0.90;;
10469;SDS011;5282;47.052;15.458;2023-04-03T08:47:45;3.50;;;1.00;;
10469;SDS011;5282;47.052;15.458;2023-04-03T08:50:19;0.80;;;0.80;;
10469;SDS011;5282;47.052;15.458;2023-04-03T08:52:51;1.70;;;1.30;;
10469;SDS011;5282;47.052;15.458;2023-04-03T08:55:22;0.90;;;0.90;;
10469;SDS011;5282;47.052;15.458;2023-04-03T08:57:53;1.00;;;1.00;;
10469;SDS011;5282;47.052;15.458;2023-04-03T09:00:30;0.90;;;0.90;;
10469;SDS011;5282;47.052;15.458;2023-04-03T09:03:01;0.90;;;0.90;;
10469;SDS011;5282;47.052;15.458;2023-04-03T09:05:31;1.00;;;1.00;;
10469;SDS011;5282;47.052;15.458;2023-04-03T09:08:06;0.90;;;0.90;;
10469;SDS011;5282;47.052;15.458;2023-04-03T09:10:39;1.60;;;1.60;;
10469;SDS011;5282;47.052;15.458;2023-04-03T09:13:09;1.00;;;1.00;;
10469;SDS011;5282;47.052;15.458;2023-04-03T09:15:41;2.10;;;1.00;;
10469;SDS011;5282;47.052;15.458;2023-04-03T09:18:12;0.77;;;0.77;;
10469;SDS011;5282;47.052;15.458;2023-04-03T09:20:45;0.50;;;0.50;;
10469;SDS011;5282;47.052;15.458;2023-04-03T09:23:18;1.23;;;0.70;;
10469;SDS011;5282;47.052;15.458;2023-04-03T09:25:50;0.90;;;0.90;;
10469;SDS011;5282;47.052;15.458;2023-04-03T09:28:21;0.97;;;0.97;;
10469;SDS011;5282;47.052;15.458;2023-04-03T09:30:49;3.20;;;1.20;;
10469;SDS011;5282;47.052;15.458;2023-04-03T09:33:16;1.80;;;0.70;;
10469;SDS011;5282;47.052;15.458;2023-04-03T09:35:44;0.80;;;0.80;;
10469;SDS011;5282;47.052;15.458;2023-04-03T09:38:16;2.10;;;2.00;;
10469;SDS011;5282;47.052;15.458;2023-04-03T09:40:45;0.73;;;0.73;;
10469;SDS011;5282;47.052;15.458;2023-04-03T09:43:25;0.80;;;0.80;;
10469;SDS011;5282;47.052;15.458;2023-04-03T09:45:55;1.00;;;1.00;;
10469;SDS011;5282;47.052;15.458;2023-04-03T09:48:23;0.90;;;0.90;;
10469;SDS011;5282;47.052;15.458;2023-04-03T09:50:59;1.23;;;1.23;;
10469;SDS011;5282;47.052;15.458;2023-04-03T09:53:30;1.00;;;1.00;;
10469;SDS011;5282;47.052;15.458;2023-04-03T09:55:59;1.00;;;1.00;;
10469;SDS011;5282;47.052;15.458;2023-04-03T09:58:29;1.23;;;0.90;;
10469;SDS011;5282;47.052;15.458;2023-04-03T10:01:00;1.03;;;1.03;;
10469;SDS011;5282;47.052;15.458;2023-04-03T10:03:29;1.33;;;0.83;;
10469;SDS011;5282;47.052;15.458;2023-04-03T10:05:57;1.87;;;0.90;;
10469;SDS011;5282;47.052;15.458;2023-04-03T10:08:26;0.90;;;0.90;;
10469;SDS011;5282;47.052;15.458;2023-04-03T10:13:50;0.80;;;0.80;;
10469;SDS011;5282;47.052;15.458;2023-04-03T10:16:28;0.90;;;0.90;;
10469;SDS011;5282;47.052;15.458;2023-04-03T10:19:09;0.83;;;0.83;;
10469;SDS011;5282;47.052;15.458;2023-04-03T10:21:44;0.63;;;0.63;;
10469;SDS011;5282;47.052;15.458;2023-04-03T10:24:17;0.80;;;0.80;;
10469;SDS011;5282;47.052;15.458;2023-04-03T10:26:52;0.90;;;0.90;;
10469;SDS011;5282;47.052;15.458;2023-04-03T10:29:32;0.73;;;0.73;;
10469;SDS011;5282;47.052;15.458;2023-04-03T10:32:11;0.90;;;0.90;;
10469;SDS011;5282;47.052;15.458;2023-04-03T10:34:50;0.80;;;0.80;;
10469;SDS011;5282;47.052;15.458;2023-04-03T10:37:24;0.80;;;0.80;;
10469;SDS011;5282;47.052;15.458;2023-04-03T10:39:57;0.97;;;0.97;;
10469;SDS011;5282;47.052;15.458;2023-04-03T10:42:28;0.87;;;0.87;;
10469;SDS011;5282;47.052;15.458;2023-04-03T10:45:07;0.83;;;0.83;;
10469;SDS011;5282;47.052;15.458;2023-04-03T10:47:46;0.70;;;0.70;;
10469;SDS011;5282;47.052;15.458;2023-04-03T10:50:29;0.63;;;0.63;;
10469;SDS011;5282;47.052;15.458;2023-04-03T10:53:06;0.80;;;0.80;;
10469;SDS011;5282;47.052;15.458;2023-04-03T10:55:40;1.00;;;1.00;;
10469;SDS011;5282;47.052;15.458;2023-04-03T10:58:18;0.93;;;0.93;;
10469;SDS011;5282;47.052;15.458;2023-04-03T11:00:48;1.10;;;1.00;;
10469;SDS011;5282;47.052;15.458;2023-04-03T11:03:23;1.20;;;1.10;;
10469;SDS011;5282;47.052;15.458;2023-04-03T11:05:56;1.00;;;1.00;;
10469;SDS011;5282;47.052;15.458;2023-04-03T11:08:28;1.17;;;1.17;;
10469;SDS011;5282;47.052;15.458;2023-04-03T11:11:00;1.00;;;1.00;;
10469;SDS011;5282;47.052;15.458;2023-04-03T11:13:33;1.93;;;1.10;;
10469;SDS011;5282;47.052;15.458;2023-04-03T11:16:03;0.90;;;0.90;;
10469;SDS011;5282;47.052;15.458;2023-04-03T11:18:34;0.80;;;0.80;;
10469;SDS011;5282;47.052;15.458;2023-04-03T11:21:07;0.83;;;0.80;;
10469;SDS011;5282;47.052;15.458;2023-04-03T11:23:41;1.00;;;1.00;;
10469;SDS011;5282;47.052;15.458;2023-04-03T11:26:10;0.90;;;0.90;;
10469;SDS011;5282;47.052;15.458;2023-04-03T11:28:38;2.50;;;1.40;;
10469;SDS011;5282;47.052;15.458;2023-04-03T11:31:12;0.90;;;0.90;;
10469;SDS011;5282;47.052;15.458;2023-04-03T11:33:55;0.90;;;0.90;;
10469;SDS011;5282;47.052;15.458;2023-04-03T11:36:31;0.83;;;0.83;;
10469;SDS011;5282;47.052;15.458;2023-04-03T11:39:05;0.90;;;0.90;;
10469;SDS011;5282;47.052;15.458;2023-04-03T11:41:41;0.97;;;0.80;;
10469;SDS011;5282;47.052;15.458;2023-04-03T11:44:25;3.40;;;0.90;;
10469;SDS011;5282;47.052;15.458;2023-04-03T11:46:58;0.70;;;0.70;;
10469;SDS011;5282;47.052;15.458;2023-04-03T11:58:19;0.90;;;0.90;;
10469;SDS011;5282;47.052;15.458;2023-04-03T12:00:49;0.80;;;0.80;;
10469;SDS011;5282;47.052;15.458;2023-04-03T12:03:34;0.90;;;0.90;;
10469;SDS011;5282;47.052;15.458;2023-04-03T12:09:29;0.80;;;0.80;;
10469;SDS011;5282;47.052;15.458;2023-04-03T12:14:52;2.17;;;1.00;;
10469;SDS011;5282;47.052;15.458;2023-04-03T12:17:20;1.00;;;1.00;;
10469;SDS011;5282;47.052;15.458;2023-04-03T12:19:52;0.90;;;0.90;;
10469;SDS011;5282;47.052;15.458;2023-04-03T12:22:20;0.80;;;0.80;;
10469;SDS011;5282;47.052;15.458;2023-04-03T12:24:48;1.20;;;1.20;;
10469;SDS011;5282;47.052;15.458;2023-04-03T12:27:27;1.13;;;1.07;;
10469;SDS011;5282;47.052;15.458;2023-04-03T12:30:04;1.10;;;1.10;;
10469;SDS011;5282;47.052;15.458;2023-04-03T12:35:30;1.07;;;1.03;;
10469;SDS011;5282;47.052;15.458;2023-04-03T12:41:22;1.10;;;1.10;;
10469;SDS011;5282;47.052;15.458;2023-04-03T12:44:05;1.00;;;1.00;;
10469;SDS011;5282;47.052;15.458;2023-04-03T12:46:45;2.63;;;1.67;;
10469;SDS011;5282;47.052;15.458;2023-04-03T12:49:26;0.97;;;0.97;;
10469;SDS011;5282;47.052;15.458;2023-04-03T12:52:01;0.90;;;0.90;;
10469;SDS011;5282;47.052;15.458;2023-04-03T12:54:34;2.23;;;1.00;;
10469;SDS011;5282;47.052;15.458;2023-04-03T12:57:09;1.10;;;1.10;;
10469;SDS011;5282;47.052;15.458;2023-04-03T12:59:36;0.93;;;0.93;;
10469;SDS011;5282;47.052;15.458;2023-04-03T13:02:09;0.90;;;0.90;;
10469;SDS011;5282;47.052;15.458;2023-04-03T13:04:46;1.13;;;1.10;;
10469;SDS011;5282;47.052;15.458;2023-04-03T13:07:23;1.00;;;1.00;;
10469;SDS011;5282;47.052;15.458;2023-04-03T13:09:59;1.10;;;1.10;;
10469;SDS011;5282;47.052;15.458;2023-04-03T13:12:30;2.13;;;1.10;;
10469;SDS011;5282;47.052;15.458;2023-04-03T13:14:58;1.50;;;1.10;;
10469;SDS011;5282;47.052;15.458;2023-04-03T13:17:29;1.50;;;1.50;;
10469;SDS011;5282;47.052;15.458;2023-04-03T13:20:09;3.47;;;3.17;;
10469;SDS011;5282;47.052;15.458;2023-04-03T13:22:38;4.70;;;4.10;;
10469;SDS011;5282;47.052;15.458;2023-04-03T13:25:11;2.23;;;2.10;;
10469;SDS011;5282;47.052;15.458;2023-04-03T13:27:40;4.10;;;3.70;;
10469;SDS011;5282;47.052;15.458;2023-04-03T13:30:17;1.77;;;1.67;;
10469;SDS011;5282;47.052;15.458;2023-04-03T13:32:56;3.37;;;2.57;;
10469;SDS011;5282;47.052;15.458;2023-04-03T13:35:26;1.40;;;1.40;;
10469;SDS011;5282;47.052;15.458;2023-04-03T13:37:59;2.00;;;1.40;;
10469;SDS011;5282;47.052;15.458;2023-04-03T13:40:29;0.90;;;0.90;;
10469;SDS011;5282;47.052;15.458;2023-04-03T13:43:03;1.00;;;1.00;;
10469;SDS011;5282;47.052;15.458;2023-04-03T13:45:32;1.40;;;1.10;;
10469;SDS011;5282;47.052;15.458;2023-04-03T13:48:08;0.67;;;0.67;;
10469;SDS011;5282;47.052;15.458;2023-04-03T13:50:51;1.00;;;1.00;;
10469;SDS011;5282;47.052;15.458;2023-04-03T13:53:21;0.90;;;0.90;;
10469;SDS011;5282;47.052;15.458;2023-04-03T13:55:55;1.10;;;0.97;;
10469;SDS011;5282;47.052;15.458;2023-04-03T13:58:25;1.40;;;0.90;;
10469;SDS011;5282;47.052;15.458;2023-04-03T14:00:53;0.97;;;0.97;;
10469;SDS011;5282;47.052;15.458;2023-04-03T14:03:22;1.33;;;1.13;;
10469;SDS011;5282;47.052;15.458;2023-04-03T14:05:52;1.00;;;1.00;;
10469;SDS011;5282;47.052;15.458;2023-04-03T14:08:20;1.37;;;1.00;;
10469;SDS011;5282;47.052;15.458;2023-04-03T14:10:48;1.63;;;1.10;;
10469;SDS011;5282;47.052;15.458;2023-04-03T14:13:18;1.60;;;1.03;;
10469;SDS011;5282;47.052;15.458;2023-04-03T14:15:47;2.33;;;1.20;;
10469;SDS011;5282;47.052;15.458;2023-04-03T14:18:16;1.30;;;1.20;;
10469;SDS011;5282;47.052;15.458;2023-04-03T14:20:44;0.83;;;0.83;;
10469;SDS011;5282;47.052;15.458;2023-04-03T14:23:12;1.50;;;0.80;;
10469;SDS011;5282;47.052;15.458;2023-04-03T14:25:39;1.17;;;1.17;;
10469;SDS011;5282;47.052;15.458;2023-04-03T14:28:12;1.13;;;1.13;;
10469;SDS011;5282;47.052;15.458;2023-04-03T14:30:43;1.10;;;1.10;;
10469;SDS011;5282;47.052;15.458;2023-04-03T14:33:13;1.00;;;1.00;;
10469;SDS011;5282;47.052;15.458;2023-04-03T14:35:42;1.10;;;1.10;;
10469;SDS011;5282;47.052;15.458;2023-04-03T14:38:12;1.10;;;1.10;;
10469;SDS011;5282;47.052;15.458;2023-04-03T14:40:49;2.43;;;1.07;;
10469;SDS011;5282;47.052;15.458;2023-04-03T14:43:16;1.30;;;1.30;;
10469;SDS011;5282;47.052;15.458;2023-04-03T14:45:45;1.03;;;1.03;;
10469;SDS011;5282;47.052;15.458;2023-04-03T14:48:15;1.20;;;1.20;;
10469;SDS011;5282;47.052;15.458;2023-04-03T14:50:45;1.50;;;1.50;;
10469;SDS011;5282;47.052;15.458;2023-04-03T14:53:15;1.37;;;1.30;;
10469;SDS011;5282;47.052;15.458;2023-04-03T14:55:44;1.27;;;1.27;;
10469;SDS011;5282;47.052;15.458;2023-04-03T14:58:12;2.17;;;1.33;;
10469;SDS011;5282;47.052;15.458;2023-04-03T15:00:41;1.30;;;1.30;;
10469;SDS011;5282;47.052;15.458;2023-04-03T15:03:13;1.20;;;1.20;;
10469;SDS011;5282;47.052;15.458;2023-04-03T15:05:42;1.30;;;1.30;;
10469;SDS011;5282;47.052;15.458;2023-04-03T15:08:17;1.20;;;1.20;;
10469;SDS011;5282;47.052;15.458;2023-04-03T15:10:47;1.47;;;1.37;;
10469;SDS011;5282;47.052;15.458;2023-04-03T15:13:14;1.10;;;1.10;;
10469;SDS011;5282;47.052;15.458;2023-04-03T15:15:41;2.03;;;1.20;;
10469;SDS011;5282;47.052;15.458;2023-04-03T15:18:10;1.53;;;1.20;;
10469;SDS011;5282;47.052;15.458;2023-04-03T15:20:46;1.20;;;1.20;;
10469;SDS011;5282;47.052;15.458;2023-04-03T15:23:14;1.40;;;1.30;;
10469;SDS011;5282;47.052;15.458;2023-04-03T15:25:42;1.40;;;1.30;;
10469;SDS011;5282;47.052;15.458;2023-04-03T15:28:10;1.37;;;1.37;;
10469;SDS011;5282;47.052;15.458;2023-04-03T15:30:44;1.23;;;1.23;;